首页
METAR-TAF:

METAR-TAF

机场 :

巴黎夏尔·戴高乐机场

巴黎戴高乐, 法国

纬度: 49-01N, 经度: 002-32E, 海拔: 118米

当前天气观测

该预报发布于25分钟前的09:30 UTC
风速11节,风向南转南东
温度 8°C
湿度 76%
气压 1002 hPa
能见度10公里或以上
1500米以下无云,无积雨云

METAR: LFPG 220930Z 15011KT CAVOK 08/04 Q1002 NOSIG

时间: 10:55 (09:55 UTC)

预报

该预报发布于4小时和55分钟前的05:00 UTC
预报有效从22日的 06点(UTC)到 23日的 12点(UTC)
风速10节,风向
能见度10公里或以上
散云层高于2000英尺
成为
从 22日的 06点(UTC)到 22日的 08点(UTC)
能见度10公里或以上
1500米以下无云,无积雨云
短暂存在
从 22日的 15点(UTC)到 23日的 06点(UTC)
风速15节,风向东南,有时为25节阵风
成为
从 22日的 23点(UTC)到 23日的 01点(UTC)
散云层高于3000英尺
多云层高于4000英尺

TAF: LFPG 220500Z 2206/2312 17010KT 9999 SCT020 TX11/2214Z TN06/2206Z BECMG 2206/2208 CAVOK TEMPO 2215/2306 13015G25KT BECMG 2223/2301 SCT030 BKN040

超过4000个机场的气象观测和天气预报(METAR&TAF报告)。

可查询的气象台以黄色和红色小点在地图上表示。

将鼠标移到小点上方,可查看气象台名称。

然后点击查看天气观测和预报。

如需切换地图:点击带黑十字的绿色按钮放大地图;点击带横线的绿色按钮缩小地图;或者点击绿色箭头查看邻近地区的地图。


METAR-TAF: